Time;durP1;ratioP1;P1;durP2;ratioP2;P2;SDS_P1;SDS_P2;PMS_P1;PMS_P2;Temp;Humidity;BMP_temperature;BMP_pressure;BME280_temperature;BME280_humidity;BME280_pressure;Samples;Min_cycle;Max_cycle;Signal;HPM_P1;HPM_P2
2022/09/11 00:00:58;;;;;;;6.53;3.50;;;;;;;18.03;45.65;100099.84;5107723;28;20122;-67
2022/09/11 00:03:24;;;;;;;6.00;3.47;;;;;;;18.01;45.52;100093.81;5107904;28;20241;-69
2022/09/11 00:05:50;;;;;;;5.68;3.63;;;;;;;18.01;45.50;100092.97;5107586;28;20016;-68
2022/09/11 00:08:18;;;;;;;8.82;3.97;;;;;;;18.01;45.63;100096.47;5107712;28;20024;-68
2022/09/11 00:10:47;;;;;;;5.32;3.60;;;;;;;18.00;45.43;100094.78;5107794;28;20020;-66
2022/09/11 00:13:23;;;;;;;5.18;3.70;;;;;;;17.99;45.81;100090.44;5107353;28;20214;-66
2022/09/11 00:15:50;;;;;;;7.65;4.35;;;;;;;18.00;45.81;100092.13;5119856;28;20134;-67
2022/09/11 00:18:22;;;;;;;5.57;3.20;;;;;;;17.97;45.76;100092.38;5127962;28;20086;-67
2022/09/11 00:20:51;;;;;;;5.32;3.38;;;;;;;17.97;45.65;100082.56;5127923;28;20020;-69
2022/09/11 00:23:18;;;;;;;4.35;3.13;;;;;;;17.96;45.68;100091.56;5118302;28;20038;-67
2022/09/11 00:25:45;;;;;;;8.90;3.50;;;;;;;17.96;45.72;100094.25;5110830;28;20023;-67
2022/09/11 00:28:15;;;;;;;6.95;4.22;;;;;;;17.95;45.51;100097.91;5107519;28;20032;-67
2022/09/11 00:30:46;;;;;;;5.43;3.70;;;;;;;17.93;45.67;100086.50;5107472;28;20229;-68
2022/09/11 00:33:13;;;;;;;5.40;3.65;;;;;;;17.93;45.65;100088.38;5107588;28;20032;-67
2022/09/11 00:35:39;;;;;;;9.23;4.10;;;;;;;17.93;45.57;100083.84;5107388;28;20008;-68
2022/09/11 00:38:07;;;;;;;6.95;3.95;;;;;;;17.92;45.60;100082.16;5109013;28;20244;-67
2022/09/11 00:40:33;;;;;;;4.55;3.13;;;;;;;17.92;45.57;100078.66;5111261;28;20039;-68
2022/09/11 00:42:59;;;;;;;5.28;3.17;;;;;;;17.92;45.66;100084.00;5110989;28;20234;-66
2022/09/11 00:45:26;;;;;;;6.95;3.38;;;;;;;17.91;45.66;100090.34;5111408;28;20095;-68
2022/09/11 00:47:58;;;;;;;4.95;2.90;;;;;;;17.91;45.61;100090.34;5110857;28;20087;-67
2022/09/11 00:50:27;;;;;;;4.57;2.95;;;;;;;17.91;45.73;100091.19;5110919;28;20027;-67
2022/09/11 00:53:01;;;;;;;4.70;2.80;;;;;;;17.90;45.67;100092.16;5111205;28;20133;-68
2022/09/11 00:55:31;;;;;;;4.40;3.03;;;;;;;17.89;45.58;100092.34;5110980;28;20012;-66
2022/09/11 00:58:04;;;;;;;4.88;3.00;;;;;;;17.88;45.55;100086.13;5110815;28;20245;-66
2022/09/11 01:00:30;;;;;;;4.88;3.53;;;;;;;17.88;45.46;100093.34;5110913;28;20016;-67
2022/09/11 01:02:56;;;;;;;7.90;3.30;;;;;;;17.87;45.43;100091.66;5110814;28;20028;-66
2022/09/11 01:05:25;;;;;;;4.93;3.42;;;;;;;17.87;45.53;100089.78;5110689;28;20083;-67
2022/09/11 01:07:53;;;;;;;5.53;3.40;;;;;;;17.86;45.68;100080.13;5110767;28;20079;-67
2022/09/11 01:10:37;;;;;;;4.78;3.15;;;;;;;17.87;45.55;100091.66;5110706;28;20072;-66
2022/09/11 01:13:21;;;;;;;5.53;3.47;;;;;;;17.84;45.57;100087.47;5110435;28;20213;-67
2022/09/11 01:16:03;;;;;;;6.10;3.63;;;;;;;17.83;45.57;100085.78;5110515;28;20026;-67
2022/09/11 01:18:40;;;;;;;5.18;3.03;;;;;;;17.82;45.68;100092.13;5110870;28;20016;-68
2022/09/11 01:21:50;;;;;;;6.63;3.47;;;;;;;17.81;45.64;100091.25;5110417;28;20020;-68
2022/09/11 01:24:25;;;;;;;5.05;2.92;;;;;;;17.81;45.60;100087.75;5120904;28;20055;-67
2022/09/11 01:27:00;;;;;;;5.97;3.38;;;;;;;17.81;45.85;100090.44;5130834;28;20020;-67
2022/09/11 01:29:26;;;;;;;5.78;3.25;;;;;;;17.79;45.57;100077.19;5112161;28;20040;-67
2022/09/11 01:32:10;;;;;;;4.85;3.38;;;;;;;17.79;45.57;100079.88;5110265;28;20062;-67
2022/09/11 01:35:00;;;;;;;5.70;3.35;;;;;;;17.79;45.62;100084.38;5115313;28;20170;-67
2022/09/11 01:37:47;;;;;;;5.93;3.53;;;;;;;17.77;45.40;100073.84;5130829;28;20015;-68
2022/09/11 01:40:28;;;;;;;5.55;3.25;;;;;;;17.78;45.59;100074.69;5130551;28;20164;-66
2022/09/11 01:43:05;;;;;;;4.97;3.25;;;;;;;17.77;45.58;100073.00;5123059;28;20249;-66
2022/09/11 01:45:36;;;;;;;5.05;3.38;;;;;;;17.76;45.50;100072.16;5109960;28;20170;-67
2022/09/11 01:48:02;;;;;;;7.85;3.85;;;;;;;17.74;45.71;100068.81;5109860;28;20024;-67
2022/09/11 01:50:30;;;;;;;5.85;3.53;;;;;;;17.75;45.57;100072.31;5108735;28;20023;-68
2022/09/11 01:53:04;;;;;;;5.18;3.33;;;;;;;17.75;45.71;100070.50;5109919;28;20020;-67
2022/09/11 01:55:42;;;;;;;5.38;3.65;;;;;;;17.75;45.51;100065.13;5109851;28;20029;-68
2022/09/11 01:58:10;;;;;;;5.03;3.25;;;;;;;17.72;45.41;100064.59;5109760;28;20091;-68
2022/09/11 02:00:38;;;;;;;5.25;3.60;;;;;;;17.74;45.58;100062.59;5109707;28;20259;-67
2022/09/11 02:03:10;;;;;;;6.57;4.10;;;;;;;17.74;45.38;100067.94;5109429;28;20015;-68
2022/09/11 02:05:46;;;;;;;5.70;3.08;;;;;;;17.73;45.34;100060.91;5109581;28;20154;-68
2022/09/11 02:08:19;;;;;;;3.78;2.90;;;;;;;17.72;45.53;100067.28;5109492;28;20020;-67
2022/09/11 02:10:51;;;;;;;6.10;4.30;;;;;;;17.70;45.56;100059.38;5109714;28;20043;-68
2022/09/11 02:13:28;;;;;;;5.65;3.28;;;;;;;17.70;45.47;100067.41;5108504;28;20019;-68
2022/09/11 02:16:10;;;;;;;5.78;2.78;;;;;;;17.69;45.45;100068.41;5109608;28;20012;-68
2022/09/11 02:18:50;;;;;;;5.78;3.13;;;;;;;17.69;45.65;100066.59;5109305;28;20266;-67
2022/09/11 02:21:15;;;;;;;7.28;3.40;;;;;;;17.66;45.56;100066.91;5109774;28;20024;-68
2022/09/11 02:23:41;;;;;;;7.35;3.63;;;;;;;17.66;45.59;100066.91;5116483;27;20133;-67
2022/09/11 02:26:10;;;;;;;5.10;3.50;;;;;;;17.66;45.54;100066.03;5123772;28;20052;-67
2022/09/11 02:28:36;;;;;;;5.93;3.63;;;;;;;17.66;45.54;100066.91;5129607;28;20023;-68
2022/09/11 02:31:02;;;;;;;5.40;3.42;;;;;;;17.65;45.46;100065.22;5116980;28;20042;-68
2022/09/11 02:33:35;;;;;;;5.55;3.70;;;;;;;17.68;45.52;100074.75;5109013;28;20034;-68
2022/09/11 02:36:31;;;;;;;4.68;3.35;;;;;;;17.66;45.53;100060.69;5109036;28;20020;-67
2022/09/11 02:39:21;;;;;;;5.43;3.65;;;;;;;17.63;45.54;100061.03;5108945;28;20027;-68
2022/09/11 02:42:14;;;;;;;5.38;3.13;;;;;;;17.62;45.58;100059.34;5108919;28;20016;-68
2022/09/11 02:44:58;;;;;;;5.18;3.38;;;;;;;17.62;45.62;100064.69;5108711;28;20078;-67
2022/09/11 02:47:54;;;;;;;5.78;3.90;;;;;;;17.63;45.53;100066.38;5108772;28;20248;-67
2022/09/11 02:50:57;;;;;;;6.55;3.47;;;;;;;17.60;45.49;100062.16;5108723;28;20083;-66
2022/09/11 02:53:51;;;;;;;5.13;3.15;;;;;;;17.58;45.56;100061.47;5088341;28;20221;-66
2022/09/11 02:56:34;;;;;;;5.70;3.50;;;;;;;17.59;45.54;100060.47;5088354;28;20032;-65
2022/09/11 02:59:25;;;;;;;4.93;3.50;;;;;;;17.59;45.47;100057.78;5088222;28;20218;-66
2022/09/11 03:01:53;;;;;;;6.35;3.42;;;;;;;17.58;45.38;100056.09;5087566;28;20020;-66
2022/09/11 03:04:21;;;;;;;5.40;3.50;;;;;;;17.60;45.30;100056.78;5087968;28;20020;-65
2022/09/11 03:06:48;;;;;;;5.53;3.17;;;;;;;17.60;45.37;100053.28;5088180;28;20024;-67
2022/09/11 03:09:15;;;;;;;7.28;4.72;;;;;;;17.59;45.43;100054.28;5088029;28;20214;-67
2022/09/11 03:11:42;;;;;;;4.70;3.35;;;;;;;17.59;45.58;100044.41;5093147;28;20038;-67
2022/09/11 03:14:08;;;;;;;5.43;3.22;;;;;;;17.59;45.44;100049.75;5108273;28;20058;-67
2022/09/11 03:16:35;;;;;;;6.05;3.38;;;;;;;17.59;45.54;100051.63;5108588;28;20046;-66
2022/09/11 03:19:01;;;;;;;4.47;3.03;;;;;;;17.58;45.64;100048.06;5108186;28;20073;-66
2022/09/11 03:21:27;;;;;;;5.18;3.08;;;;;;;17.59;45.42;100047.09;5108211;28;20016;-67
2022/09/11 03:23:52;;;;;;;4.47;3.22;;;;;;;17.59;45.51;100041.72;5107983;28;20026;-66
2022/09/11 03:26:18;;;;;;;5.55;3.22;;;;;;;17.59;45.28;100048.94;5108071;28;20016;-67
2022/09/11 03:28:44;;;;;;;4.53;3.40;;;;;;;17.58;45.25;100036.56;5108055;28;20016;-67
2022/09/11 03:31:10;;;;;;;4.97;3.60;;;;;;;17.59;44.94;100048.94;5108106;28;20018;-67
2022/09/11 03:33:36;;;;;;;4.88;3.17;;;;;;;17.58;44.83;100045.41;5107941;28;20048;-67
2022/09/11 03:36:02;;;;;;;8.27;3.70;;;;;;;17.60;45.14;100034.56;5108016;28;20217;-66
2022/09/11 03:38:28;;;;;;;6.90;3.38;;;;;;;17.57;45.27;100033.03;5107947;28;20016;-67
2022/09/11 03:40:53;;;;;;;5.38;3.28;;;;;;;17.60;44.91;100029.22;5107866;28;20012;-67
2022/09/11 03:43:20;;;;;;;4.45;2.78;;;;;;;17.59;44.92;100035.56;5107683;28;20256;-67
2022/09/11 03:45:48;;;;;;;4.35;2.88;;;;;;;17.60;45.07;100035.38;5107797;28;20031;-67
2022/09/11 03:48:15;;;;;;;5.88;3.58;;;;;;;17.59;45.01;100036.38;5107795;28;20016;-67
2022/09/11 03:50:40;;;;;;;4.93;3.72;;;;;;;17.60;44.98;100032.72;5107814;28;20024;-67
2022/09/11 03:53:06;;;;;;;4.70;3.17;;;;;;;17.59;44.90;100027.53;5107761;28;20087;-67
2022/09/11 03:55:31;;;;;;;5.38;3.85;;;;;;;17.59;44.81;100020.31;5107784;28;20233;-66
2022/09/11 03:57:58;;;;;;;5.40;2.95;;;;;;;17.60;44.87;100030.03;5107688;28;20028;-67
2022/09/11 04:00:25;;;;;;;5.55;3.53;;;;;;;17.59;44.98;100032.88;5107668;28;20225;-66
2022/09/11 04:02:50;;;;;;;4.38;2.65;;;;;;;17.60;44.81;100030.03;5107818;28;20189;-66
2022/09/11 04:05:16;;;;;;;4.47;3.00;;;;;;;17.61;44.65;100037.06;5107624;28;20023;-68
2022/09/11 04:07:42;;;;;;;3.53;2.92;;;;;;;17.63;44.81;100028.91;5107884;28;20155;-66
2022/09/11 04:10:08;;;;;;;4.90;3.08;;;;;;;17.61;44.58;100031.72;5107675;28;20087;-67
2022/09/11 04:12:34;;;;;;;3.97;2.95;;;;;;;17.63;44.48;100031.59;5108562;28;20081;-67
2022/09/11 04:15:01;;;;;;;8.52;3.70;;;;;;;17.62;44.47;100035.25;5111817;28;20012;-68
2022/09/11 04:17:28;;;;;;;5.13;3.83;;;;;;;17.64;44.09;100038.63;5111570;28;20020;-66
2022/09/11 04:19:54;;;;;;;7.65;3.85;;;;;;;17.63;44.19;100037.75;5111625;28;20019;-68
2022/09/11 04:22:20;;;;;;;6.38;3.60;;;;;;;17.64;43.98;100028.75;5110598;28;20011;-67
2022/09/11 04:24:45;;;;;;;6.40;3.10;;;;;;;17.64;44.06;100025.25;5111467;28;20118;-66
2022/09/11 04:27:11;;;;;;;6.95;3.80;;;;;;;17.67;43.68;100031.13;5111483;28;20031;-67
2022/09/11 04:29:37;;;;;;;5.30;3.97;;;;;;;17.69;43.43;100030.94;5111373;28;20012;-67
2022/09/11 04:32:03;;;;;;;4.43;2.97;;;;;;;17.71;43.28;100031.63;5111349;28;20276;-68
2022/09/11 04:34:29;;;;;;;7.20;4.15;;;;;;;17.74;43.52;100025.13;5111454;28;20042;-67
2022/09/11 04:36:55;;;;;;;6.57;3.75;;;;;;;17.76;43.09;100028.50;5111348;28;20047;-66
2022/09/11 04:39:20;;;;;;;7.43;3.40;;;;;;;17.77;43.28;100030.16;5111228;28;20092;-67
2022/09/11 04:41:46;;;;;;;10.93;4.35;;;;;;;17.77;43.01;100022.13;5111265;28;20032;-66
2022/09/11 04:44:13;;;;;;;10.63;3.95;;;;;;;17.78;43.00;100031.84;5110946;28;20032;-68
2022/09/11 04:46:39;;;;;;;7.43;3.38;;;;;;;17.80;43.14;100030.69;5111234;28;20011;-67
2022/09/11 04:49:06;;;;;;;8.23;3.72;;;;;;;17.84;42.67;100033.91;5111123;28;20039;-66
2022/09/11 04:51:35;;;;;;;5.85;3.55;;;;;;;17.83;43.04;100029.56;5110147;28;20046;-67
2022/09/11 04:54:02;;;;;;;8.57;3.45;;;;;;;17.83;43.00;100029.56;5110979;28;20024;-67
2022/09/11 04:56:30;;;;;;;7.45;3.95;;;;;;;17.92;42.71;100031.28;5110996;28;20099;-67
2022/09/11 04:58:58;;;;;;;10.00;3.75;;;;;;;17.91;42.63;100026.94;5110881;28;20019;-66
2022/09/11 05:01:26;;;;;;;8.38;4.07;;;;;;;17.90;42.67;100027.91;5110815;28;20072;-67
2022/09/11 05:03:52;;;;;;;7.70;3.92;;;;;;;17.89;42.65;100028.09;5110825;28;20012;-66
2022/09/11 05:06:18;;;;;;;12.70;4.07;;;;;;;17.92;42.70;100025.94;5110555;28;20011;-66
2022/09/11 05:08:45;;;;;;;10.45;3.30;;;;;;;18.14;42.05;100038.00;5110622;28;20042;-67
2022/09/11 05:11:13;;;;;;;12.98;4.55;;;;;;;18.49;41.22;100029.97;5110544;28;20221;-68
2022/09/11 05:13:39;;;;;;;9.57;3.65;;;;;;;18.78;40.63;100031.41;5110549;28;20086;-67
2022/09/11 05:16:13;;;;;;;11.07;5.07;;;;;;;18.99;40.03;100030.19;5110634;28;20023;-68
2022/09/11 05:18:41;;;;;;;12.70;3.85;;;;;;;19.16;39.96;100029.22;5110450;28;20028;-67
2022/09/11 05:21:13;;;;;;;5.15;3.35;;;;;;;19.30;39.86;100034.94;5110558;28;20114;-66
2022/09/11 05:23:40;;;;;;;8.82;3.22;;;;;;;19.45;40.00;100033.28;5110065;28;20048;-67
2022/09/11 05:26:11;;;;;;;5.15;2.90;;;;;;;19.61;39.87;100042.34;5110114;28;20016;-67
2022/09/11 05:28:36;;;;;;;6.30;3.60;;;;;;;19.70;39.76;100033.28;5110234;28;20034;-67
2022/09/11 05:31:16;;;;;;;6.40;3.28;;;;;;;19.64;40.17;100033.94;5110286;28;20043;-67
2022/09/11 05:33:42;;;;;;;5.68;3.03;;;;;;;19.51;40.44;100037.13;5110222;28;20145;-67
2022/09/11 05:36:09;;;;;;;10.55;3.13;;;;;;;19.25;41.13;100035.44;5110266;28;20023;-68
2022/09/11 05:38:35;;;;;;;9.13;5.57;;;;;;;19.04;41.80;100039.41;5110026;28;20220;-66
2022/09/11 05:41:01;;;;;;;6.75;3.30;;;;;;;18.90;42.08;100030.09;5110377;28;20020;-67
2022/09/11 05:43:26;;;;;;;5.22;3.33;;;;;;;18.84;42.49;100037.97;5109915;28;20048;-67
2022/09/11 05:45:54;;;;;;;4.68;3.22;;;;;;;18.75;42.84;100029.06;5109964;28;20027;-67
2022/09/11 05:48:19;;;;;;;6.03;3.55;;;;;;;18.75;42.92;100039.78;5109928;28;20050;-67
2022/09/11 05:50:58;;;;;;;9.02;3.35;;;;;;;18.69;42.86;100027.03;5109844;28;20015;-67
2022/09/11 05:53:25;;;;;;;6.10;2.83;;;;;;;18.67;43.09;100026.34;5109811;28;20027;-67
2022/09/11 05:55:51;;;;;;;4.43;2.70;;;;;;;18.66;43.29;100030.91;5109734;28;20091;-67
2022/09/11 05:58:16;;;;;;;4.75;2.67;;;;;;;18.66;43.23;100017.50;5109754;28;20024;-67
2022/09/11 06:00:45;;;;;;;5.80;2.65;;;;;;;18.65;43.40;100023.00;5109735;28;20099;-68
2022/09/11 06:03:12;;;;;;;7.00;3.10;;;;;;;18.65;43.29;100023.00;5109684;28;20032;-67
2022/09/11 06:05:38;;;;;;;5.95;2.58;;;;;;;18.64;43.39;100014.13;5109604;28;20132;-66
2022/09/11 06:08:04;;;;;;;7.03;2.90;;;;;;;18.63;43.25;100014.28;5109485;28;20027;-67
2022/09/11 06:10:29;;;;;;;6.18;2.78;;;;;;;18.64;43.38;100016.81;5109632;28;20015;-68
2022/09/11 06:12:56;;;;;;;5.82;2.58;;;;;;;18.64;43.29;100014.13;5109256;28;20062;-66
2022/09/11 06:15:21;;;;;;;6.15;2.83;;;;;;;18.65;43.18;100012.28;5109440;28;20025;-67
2022/09/11 06:17:47;;;;;;;9.13;2.85;;;;;;;18.65;43.20;100013.13;5109391;28;20038;-66
2022/09/11 06:20:12;;;;;;;3.80;2.38;;;;;;;18.65;43.33;100021.16;5109385;28;20077;-67
2022/09/11 06:22:38;;;;;;;4.68;2.75;;;;;;;18.65;43.23;100017.63;5109150;28;20016;-67
2022/09/11 06:25:04;;;;;;;6.38;2.67;;;;;;;18.64;43.32;100015.97;5109133;28;20016;-67
2022/09/11 06:27:30;;;;;;;4.93;2.53;;;;;;;18.64;43.17;100015.97;5109171;28;20015;-67
2022/09/11 06:29:55;;;;;;;5.32;2.08;;;;;;;18.65;42.83;100018.50;5109374;28;20223;-67
2022/09/11 06:32:21;;;;;;;5.82;2.75;;;;;;;18.65;42.78;100013.13;5109291;28;20124;-67
2022/09/11 06:34:46;;;;;;;4.20;2.80;;;;;;;18.65;42.60;100017.63;5108663;28;20158;-67
2022/09/11 06:37:12;;;;;;;5.25;2.95;;;;;;;18.67;42.62;100012.97;5108863;28;20213;-68
2022/09/11 06:39:38;;;;;;;5.32;2.30;;;;;;;18.67;42.48;100010.28;5109002;28;20012;-67
2022/09/11 06:42:03;;;;;;;4.03;2.47;;;;;;;18.66;42.31;100004.09;5108893;28;20015;-67
2022/09/11 06:44:29;;;;;;;3.60;1.85;;;;;;;18.68;42.20;100009.28;5108630;28;20039;-68
2022/09/11 06:46:56;;;;;;;7.07;2.42;;;;;;;18.67;42.33;100005.78;5108835;28;20016;-68
2022/09/11 06:49:22;;;;;;;6.88;2.50;;;;;;;18.68;42.31;100007.41;5108917;28;20012;-68
2022/09/11 06:51:48;;;;;;;3.95;2.90;;;;;;;18.69;42.27;100003.75;5108646;28;20015;-68
2022/09/11 06:54:14;;;;;;;5.30;3.00;;;;;;;18.69;42.22;99992.19;5108606;28;20034;-68
2022/09/11 06:56:40;;;;;;;5.93;3.05;;;;;;;18.72;42.20;99995.38;5108651;28;20028;-67
2022/09/11 06:59:06;;;;;;;7.28;3.30;;;;;;;18.73;42.33;99996.25;5108370;28;20026;-67
2022/09/11 07:01:32;;;;;;;7.07;3.20;;;;;;;18.75;42.27;99999.56;5108621;28;20020;-68
2022/09/11 07:03:57;;;;;;;6.05;3.42;;;;;;;18.75;42.29;99999.56;5108406;28;20121;-67
2022/09/11 07:06:26;;;;;;;5.03;2.65;;;;;;;18.76;42.08;99996.75;5108251;28;20023;-68
2022/09/11 07:08:55;;;;;;;5.78;3.22;;;;;;;18.78;42.62;99998.44;5108182;28;20044;-68
2022/09/11 07:11:21;;;;;;;4.40;3.05;;;;;;;18.78;42.42;99998.44;5108267;28;20024;-67
2022/09/11 07:13:47;;;;;;;6.72;3.75;;;;;;;18.79;42.50;99992.06;5108220;28;20069;-67
2022/09/11 07:16:13;;;;;;;5.55;3.15;;;;;;;18.79;42.45;99998.25;5108355;28;20202;-68
2022/09/11 07:18:40;;;;;;;5.15;3.05;;;;;;;18.80;42.27;99999.09;5108227;28;20016;-67
2022/09/11 07:21:11;;;;;;;5.47;3.05;;;;;;;18.80;42.26;99994.56;5108232;28;20091;-68
2022/09/11 07:23:38;;;;;;;4.70;3.00;;;;;;;18.81;42.29;99995.41;5108278;28;20016;-68
2022/09/11 07:26:06;;;;;;;4.20;2.75;;;;;;;18.81;41.97;99990.88;5108144;28;20097;-67
2022/09/11 07:28:31;;;;;;;4.85;2.70;;;;;;;18.82;41.95;99991.75;5108082;28;20039;-67
2022/09/11 07:31:15;;;;;;;4.32;2.28;;;;;;;18.82;41.74;99987.22;5108108;28;20027;-67
2022/09/11 07:33:53;;;;;;;5.78;2.80;;;;;;;18.83;41.89;99983.53;5108069;28;20104;-67
2022/09/11 07:36:22;;;;;;;4.85;2.78;;;;;;;18.83;41.86;99983.53;5107997;28;20163;-67
2022/09/11 07:38:49;;;;;;;4.20;2.75;;;;;;;18.83;42.04;99977.31;5107867;28;20020;-64
2022/09/11 07:41:17;;;;;;;4.78;2.50;;;;;;;18.85;42.00;99980.66;5107756;28;20023;-68
2022/09/11 07:43:47;;;;;;;4.20;2.60;;;;;;;18.86;41.87;99974.31;5107753;28;20108;-66
2022/09/11 07:46:13;;;;;;;5.80;3.00;;;;;;;18.86;41.94;99966.25;5107591;28;20024;-68
2022/09/11 07:48:41;;;;;;;2.70;2.10;;;;;;;18.86;41.85;99977.84;5106890;28;20224;-68
2022/09/11 07:51:12;;;;;;;5.18;2.10;;;;;;;18.86;41.78;99971.63;5107575;28;20016;-67
2022/09/11 07:53:42;;;;;;;3.47;2.10;;;;;;;18.85;41.68;99962.75;5107723;28;20058;-67
2022/09/11 07:56:11;;;;;;;3.50;2.60;;;;;;;18.86;41.90;99971.63;5107838;28;20024;-67
2022/09/11 07:58:39;;;;;;;5.43;2.47;;;;;;;18.86;41.78;99966.25;5107724;28;20098;-69
2022/09/11 08:01:06;;;;;;;3.90;2.53;;;;;;;18.88;41.75;99964.25;5107552;28;20030;-68
2022/09/11 08:03:33;;;;;;;5.53;2.40;;;;;;;18.87;41.86;99958.06;5107550;28;20152;-67
2022/09/11 08:06:05;;;;;;;4.32;2.40;;;;;;;18.89;41.48;99952.53;5107480;28;20020;-68
2022/09/11 08:08:31;;;;;;;3.63;2.30;;;;;;;18.88;41.78;99953.53;5107851;28;20015;-68
2022/09/11 08:11:12;;;;;;;5.03;2.70;;;;;;;18.90;41.89;99954.22;5107610;28;20023;-70
2022/09/11 08:13:38;;;;;;;3.63;2.30;;;;;;;18.90;41.53;99955.03;5087373;28;20036;-69
2022/09/11 08:16:04;;;;;;;3.75;2.20;;;;;;;18.89;41.44;99947.16;5087296;28;20020;-70
2022/09/11 08:18:30;;;;;;;3.20;2.00;;;;;;;18.91;41.62;99951.34;5087203;28;20050;-68
2022/09/11 08:21:02;;;;;;;4.82;2.10;;;;;;;18.89;41.63;99939.13;5087263;28;20029;-69
2022/09/11 08:23:30;;;;;;;6.50;3.08;;;;;;;18.90;41.64;99943.50;5098284;28;20012;-70
2022/09/11 08:25:56;;;;;;;3.63;2.17;;;;;;;18.91;41.66;99942.47;5107381;28;20016;-69
2022/09/11 08:28:21;;;;;;;5.93;2.35;;;;;;;18.90;41.29;99941.63;5107390;28;20063;-68
2022/09/11 08:30:47;;;;;;;3.42;2.72;;;;;;;18.90;41.42;99941.63;5107309;28;20065;-67
2022/09/11 08:33:12;;;;;;;4.15;1.92;;;;;;;18.91;41.13;99937.94;5107316;28;20059;-68
2022/09/11 08:35:38;;;;;;;3.33;2.25;;;;;;;18.91;41.40;99934.44;5107293;28;20016;-69
2022/09/11 08:38:03;;;;;;;4.90;1.80;;;;;;;18.92;41.50;99933.44;5106959;28;20034;-69
2022/09/11 08:40:30;;;;;;;3.33;1.70;;;;;;;18.92;40.92;99934.25;5107158;28;20057;-71
2022/09/11 08:43:02;;;;;;;3.65;2.22;;;;;;;18.93;41.15;99929.75;5107081;28;20099;-69
2022/09/11 08:45:33;;;;;;;4.20;2.30;;;;;;;18.95;41.06;99925.09;5107253;28;20031;-70
2022/09/11 08:48:00;;;;;;;4.28;1.95;;;;;;;18.95;41.15;99924.25;5107297;28;20278;-70
2022/09/11 08:50:48;;;;;;;3.25;1.83;;;;;;;18.96;40.73;99920.56;5107494;28;20012;-71
2022/09/11 08:53:17;;;;;;;4.45;1.85;;;;;;;18.97;41.19;99928.44;5107455;28;20024;-69
2022/09/11 08:56:00;;;;;;;2.75;1.65;;;;;;;18.98;41.07;99918.56;5106353;28;20106;-69
2022/09/11 08:58:35;;;;;;;4.05;1.95;;;;;;;18.98;41.22;99922.06;5108042;28;20296;-68
2022/09/11 09:01:18;;;;;;;5.38;2.30;;;;;;;18.99;41.67;99914.88;5110969;28;20085;-66
2022/09/11 09:04:02;;;;;;;3.63;2.15;;;;;;;19.01;41.63;99915.56;5110898;28;20039;-69
2022/09/11 09:07:03;;;;;;;3.47;1.98;;;;;;;19.02;42.05;99917.22;5110805;28;20016;-68
2022/09/11 09:09:36;;;;;;;6.30;2.47;;;;;;;19.01;42.21;99907.50;5110858;28;20106;-67
2022/09/11 09:12:11;;;;;;;5.72;1.88;;;;;;;19.04;42.08;99908.00;5110710;28;20027;-68
2022/09/11 09:14:43;;;;;;;5.85;2.60;;;;;;;19.07;42.97;99917.53;5110937;28;20012;-69
2022/09/11 09:17:19;;;;;;;5.00;2.50;;;;;;;19.08;42.68;99908.50;5110536;28;20030;-68
2022/09/11 09:20:00;;;;;;;6.63;1.83;;;;;;;19.10;42.57;99908.34;5110818;28;20167;-69
2022/09/11 09:22:38;;;;;;;;;;;;;;;19.02;42.89;99914.53;5110588;28;20019;-67
2022/09/11 09:25:10;;;;;;;4.80;2.10;;;;;;;19.07;43.01;99912.19;5110323;28;19910;-67
2022/09/11 09:27:44;;;;;;;4.80;1.92;;;;;;;19.10;42.78;99919.06;5089972;28;20026;-69
2022/09/11 09:30:16;;;;;;;3.60;1.88;;;;;;;19.09;42.34;99906.66;5089828;28;20252;-69
2022/09/11 09:33:06;;;;;;;8.57;2.75;;;;;;;19.12;42.74;99917.03;5090124;28;20088;-66
2022/09/11 09:35:40;;;;;;;3.65;2.03;;;;;;;19.10;42.57;99911.84;5088750;28;20226;-67
2022/09/11 09:38:20;;;;;;;7.15;2.50;;;;;;;19.11;42.63;99910.84;5089755;28;20092;-67
2022/09/11 09:41:27;;;;;;;3.13;2.08;;;;;;;19.11;42.46;99910.03;5089856;28;20012;-70
2022/09/11 09:44:10;;;;;;;2.17;1.33;;;;;;;19.11;42.52;99910.03;5082343;28;20242;-68
2022/09/11 09:46:49;;;;;;;3.50;2.17;;;;;;;19.11;42.68;99913.53;5089725;28;20091;-67
2022/09/11 09:49:34;;;;;;;7.75;2.15;;;;;;;19.12;42.45;99909.00;5089669;28;20079;-67
2022/09/11 09:52:13;;;;;;;3.92;1.88;;;;;;;19.12;42.76;99915.22;5089679;28;20099;-69
2022/09/11 09:54:38;;;;;;;2.92;1.50;;;;;;;19.13;42.46;99914.22;5089682;28;20020;-66
2022/09/11 09:57:09;;;;;;;3.47;1.83;;;;;;;19.14;42.69;99915.88;5089339;28;20087;-65
2022/09/11 09:59:54;;;;;;;9.48;2.97;;;;;;;19.13;42.78;99913.34;5089473;28;20028;-69
2022/09/11 10:02:38;;;;;;;3.00;1.80;;;;;;;19.14;42.56;99917.72;5099107;28;20019;-69
2022/09/11 10:05:41;;;;;;;3.90;1.48;;;;;;;19.13;42.19;99916.03;5109601;28;20023;-65
2022/09/11 10:08:33;;;;;;;2.75;1.80;;;;;;;19.13;42.38;99902.63;5109574;28;20047;-69
2022/09/11 10:10:59;;;;;;;3.60;1.75;;;;;;;19.13;42.78;99910.66;5108754;28;20081;-70
2022/09/11 10:13:27;;;;;;;4.13;1.60;;;;;;;19.14;42.86;99907.00;5109551;28;20133;-66
2022/09/11 10:15:58;;;;;;;3.50;1.70;;;;;;;19.14;42.71;99907.84;5109374;28;20114;-67
2022/09/11 10:18:41;;;;;;;2.67;1.60;;;;;;;19.15;42.52;99914.03;5109316;28;20016;-69
2022/09/11 10:21:35;;;;;;;3.58;1.55;;;;;;;19.15;42.76;99905.97;5109584;28;20040;-66
2022/09/11 10:24:01;;;;;;;3.47;1.30;;;;;;;19.15;42.64;99901.47;5109087;28;20027;-65
2022/09/11 10:26:42;;;;;;;3.78;1.85;;;;;;;19.17;43.15;99902.16;5109179;28;20020;-66
2022/09/11 10:29:14;;;;;;;4.15;1.23;;;;;;;19.17;42.90;99907.50;5109372;28;20019;-68
2022/09/11 10:31:47;;;;;;;2.58;1.55;;;;;;;19.19;42.99;99912.69;5109131;28;20043;-66
2022/09/11 10:34:16;;;;;;;2.67;1.17;;;;;;;19.20;42.42;99909.84;5108278;28;20019;-67
2022/09/11 10:36:54;;;;;;;6.88;1.75;;;;;;;19.23;42.50;99905.13;5108992;28;20248;-67
2022/09/11 10:39:20;;;;;;;2.90;1.40;;;;;;;19.22;42.66;99898.94;5108949;28;20024;-68
2022/09/11 10:41:48;;;;;;;2.92;1.52;;;;;;;19.25;43.17;99901.31;5108918;28;20040;-68
2022/09/11 10:44:16;;;;;;;2.53;1.48;;;;;;;19.27;43.86;99898.44;5108581;28;20039;-67
2022/09/11 10:46:44;;;;;;;3.33;1.40;;;;;;;19.26;44.24;99894.09;5108872;28;20028;-67
2022/09/11 10:49:19;;;;;;;2.80;1.55;;;;;;;19.28;43.82;99900.13;5108966;28;20043;-68
2022/09/11 10:52:16;;;;;;;3.75;1.88;;;;;;;19.27;44.00;99893.06;5108570;28;20225;-67
2022/09/11 10:54:58;;;;;;;2.50;1.60;;;;;;;19.27;43.79;99895.75;5108718;28;20023;-68
2022/09/11 10:57:35;;;;;;;2.50;1.02;;;;;;;19.29;43.85;99896.44;5108568;28;20039;-67
2022/09/11 11:00:23;;;;;;;5.28;1.40;;;;;;;19.30;43.72;99893.56;5108596;28;20138;-66
2022/09/11 11:02:51;;;;;;;5.43;1.75;;;;;;;19.29;44.45;99891.88;5108334;28;20015;-67
2022/09/11 11:05:43;;;;;;;1.98;1.13;;;;;;;19.29;43.91;99885.69;5108352;28;20012;-69
2022/09/11 11:08:41;;;;;;;4.90;2.67;;;;;;;19.28;43.33;99875.97;5108437;28;20020;-66
2022/09/11 11:11:31;;;;;;;2.50;1.45;;;;;;;19.29;42.89;99874.97;5108344;28;20019;-68
2022/09/11 11:14:26;;;;;;;2.00;1.17;;;;;;;19.29;42.82;99874.97;5108099;28;20213;-66
2022/09/11 11:17:23;;;;;;;1.95;1.35;;;;;;;19.27;42.44;99876.97;5108241;28;20141;-68
2022/09/11 11:20:10;;;;;;;2.13;1.10;;;;;;;19.28;42.16;99873.28;5092334;28;20040;-69
2022/09/11 11:23:02;;;;;;;2.30;1.40;;;;;;;19.27;42.16;99872.44;5107848;28;20031;-68
2022/09/11 11:25:57;;;;;;;3.22;1.38;;;;;;;19.27;41.74;99860.88;5108029;28;20032;-66
2022/09/11 11:28:42;;;;;;;2.60;1.40;;;;;;;19.28;41.83;99870.59;5108066;28;20038;-67
2022/09/11 11:31:34;;;;;;;2.80;1.50;;;;;;;19.29;41.66;99866.91;5107735;28;20032;-67
2022/09/11 11:34:07;;;;;;;4.30;1.25;;;;;;;19.28;41.56;99862.56;5107991;28;20028;-67
2022/09/11 11:36:47;;;;;;;3.38;1.60;;;;;;;19.32;41.89;99869.28;5107970;28;20044;-68
2022/09/11 11:39:27;;;;;;;3.70;1.35;;;;;;;19.30;41.80;99855.19;5107784;28;20034;-66
2022/09/11 11:42:08;;;;;;;2.37;1.13;;;;;;;19.32;41.91;99859.38;5107884;28;20024;-67
2022/09/11 11:44:47;;;;;;;2.38;1.35;;;;;;;19.30;41.55;99847.13;5107637;28;20491;-67
2022/09/11 11:47:15;;;;;;;2.15;1.20;;;;;;;19.32;41.55;99854.00;5107800;28;20023;-66
2022/09/11 11:49:52;;;;;;;7.13;2.17;;;;;;;19.34;41.90;99846.63;5107773;28;20031;-67
2022/09/11 11:52:29;;;;;;;2.95;1.38;;;;;;;19.35;41.92;99847.44;5088767;28;20024;-67